Time;durP1;ratioP1;P1;durP2;ratioP2;P2;SDS_P1;SDS_P2;PMS_P1;PMS_P2;Temp;Humidity;BMP_temperature;BMP_pressure;BME280_temperature;BME280_humidity;BME280_pressure;Samples;Min_cycle;Max_cycle;Signal;HPM_P1;HPM_P2
2022/06/03 00:03:25;;;;;;;7.35;2.20;;;24.70;51.10;;;;;;7353391;24;20123;-71
2022/06/03 00:07:00;;;;;;;5.80;1.85;;;24.70;51.00;;;;;;7354593;24;20115;-71
2022/06/03 00:10:01;;;;;;;2.83;1.90;;;24.60;51.20;;;;;;7372439;24;20028;-69
2022/06/03 00:13:04;;;;;;;6.45;2.53;;;24.60;51.20;;;;;;7351919;24;20027;-71
2022/06/03 00:16:15;;;;;;;5.97;2.33;;;24.60;51.30;;;;;;7351658;24;20088;-71
2022/06/03 00:19:27;;;;;;;8.23;2.25;;;24.60;51.40;;;;;;7373517;24;20120;-70
2022/06/03 00:22:56;;;;;;;7.80;2.30;;;24.50;51.50;;;;;;7373032;24;20068;-70
2022/06/03 00:26:23;;;;;;;5.33;2.50;;;24.50;51.70;;;;;;7340975;24;20442;-70
2022/06/03 00:29:48;;;;;;;4.72;2.20;;;24.50;51.80;;;;;;7343559;24;20254;-71
2022/06/03 00:33:30;;;;;;;4.18;2.22;;;24.50;51.80;;;;;;7418718;23;20019;-72
2022/06/03 00:36:48;;;;;;;5.70;2.20;;;24.50;52.00;;;;;;7486940;23;20090;-71
2022/06/03 00:40:07;;;;;;;7.45;2.28;;;24.50;52.00;;;;;;7670072;23;20021;-71
2022/06/03 00:43:23;;;;;;;6.32;2.58;;;24.50;52.00;;;;;;7669868;23;20770;-70
2022/06/03 00:46:45;;;;;;;6.47;2.30;;;24.40;51.80;;;;;;7669798;23;20013;-70
2022/06/03 00:49:49;;;;;;;6.43;2.40;;;24.50;51.80;;;;;;7699348;22;20032;-70
2022/06/03 00:53:15;;;;;;;6.93;2.53;;;24.50;51.70;;;;;;7722352;23;20005;-70
2022/06/03 00:56:58;;;;;;;4.82;2.47;;;24.50;52.00;;;;;;7670891;23;20044;-71
2022/06/03 01:00:05;;;;;;;4.90;2.33;;;24.50;52.10;;;;;;7671541;23;20028;-71
2022/06/03 01:03:15;;;;;;;7.25;2.47;;;24.40;52.10;;;;;;7671184;23;20316;-71
2022/06/03 01:06:19;;;;;;;6.20;2.67;;;24.40;52.30;;;;;;7672875;23;20013;-71
2022/06/03 01:09:35;;;;;;;5.22;2.22;;;24.40;52.20;;;;;;7671606;23;20017;-71
2022/06/03 01:13:04;;;;;;;3.90;2.50;;;24.40;52.20;;;;;;7648070;23;20095;-71
2022/06/03 01:16:17;;;;;;;3.88;2.42;;;24.40;52.90;;;;;;7720283;23;20468;-71
2022/06/03 01:19:39;;;;;;;6.25;2.10;;;24.40;52.30;;;;;;7721110;23;20474;-71
2022/06/03 01:23:00;;;;;;;4.18;2.35;;;24.30;52.30;;;;;;7672508;23;20120;-71
2022/06/03 01:26:13;;;;;;;8.77;2.45;;;24.30;52.50;;;;;;7720806;23;20024;-71
2022/06/03 01:29:52;;;;;;;3.55;2.47;;;24.30;52.60;;;;;;7672973;23;20428;-71
2022/06/03 01:33:05;;;;;;;5.25;1.92;;;24.20;52.80;;;;;;7667357;23;20694;-71
2022/06/03 01:36:15;;;;;;;8.57;2.30;;;24.20;52.90;;;;;;7719497;23;20013;-71
2022/06/03 01:39:34;;;;;;;6.65;2.35;;;24.20;53.10;;;;;;7670673;23;20040;-71
2022/06/03 01:43:00;;;;;;;4.80;2.33;;;24.10;53.10;;;;;;7671448;23;20017;-72
2022/06/03 01:46:21;;;;;;;6.40;2.92;;;24.10;53.20;;;;;;7670550;23;20071;-71
2022/06/03 01:49:43;;;;;;;7.10;2.80;;;24.00;53.40;;;;;;7676448;23;20017;-71
2022/06/03 01:52:56;;;;;;;9.00;2.58;;;24.00;53.50;;;;;;7705967;23;20472;-71
2022/06/03 01:56:27;;;;;;;12.27;2.67;;;23.90;53.60;;;;;;7706613;23;20009;-70
2022/06/03 02:00:03;;;;;;;7.65;2.78;;;23.90;53.80;;;;;;7730724;23;20014;-71
2022/06/03 02:03:30;;;;;;;5.35;2.78;;;23.90;54.00;;;;;;7592521;23;20053;-71
2022/06/03 02:07:00;;;;;;;9.18;2.85;;;23.90;54.10;;;;;;7593358;23;20113;-72
2022/06/03 02:10:23;;;;;;;6.32;2.20;;;23.80;54.10;;;;;;7593098;23;20030;-71
2022/06/03 02:13:35;;;;;;;5.32;2.10;;;23.90;54.10;;;;;;7592997;23;20014;-71
2022/06/03 02:16:51;;;;;;;5.28;2.20;;;23.80;54.20;;;;;;7593071;23;20022;-71
2022/06/03 02:20:03;;;;;;;7.28;2.53;;;23.80;54.40;;;;;;7593071;23;20518;-71
2022/06/03 02:23:23;;;;;;;6.97;2.45;;;23.70;54.40;;;;;;7594558;23;20092;-71
2022/06/03 02:26:55;;;;;;;4.85;2.42;;;23.70;54.30;;;;;;7595240;23;20058;-70
2022/06/03 02:30:32;;;;;;;6.75;2.40;;;23.70;54.20;;;;;;7593978;23;20010;-71
2022/06/03 02:33:47;;;;;;;6.68;2.92;;;23.80;54.20;;;;;;7591779;23;20010;-70
2022/06/03 02:37:10;;;;;;;7.15;2.63;;;23.80;54.20;;;;;;7592856;23;20089;-71
2022/06/03 02:40:44;;;;;;;6.93;2.50;;;23.80;54.40;;;;;;7672057;23;20008;-70
2022/06/03 02:43:57;;;;;;;8.48;2.88;;;23.80;54.50;;;;;;7709030;23;20023;-70
2022/06/03 02:47:26;;;;;;;4.82;2.50;;;23.70;54.50;;;;;;7707897;23;20012;-70
2022/06/03 02:50:33;;;;;;;7.03;2.90;;;23.70;54.70;;;;;;7731064;23;20039;-70
2022/06/03 02:53:45;;;;;;;12.05;2.67;;;23.70;54.80;;;;;;7706929;23;20009;-71
2022/06/03 02:57:11;;;;;;;6.25;2.97;;;23.60;55.00;;;;;;7729223;23;20024;-70
2022/06/03 03:00:38;;;;;;;3.05;2.45;;;23.60;55.10;;;;;;7706012;23;20031;-71
2022/06/03 03:04:00;;;;;;;5.75;2.75;;;23.60;55.20;;;;;;7701180;23;20051;-70
2022/06/03 03:07:34;;;;;;;5.22;2.55;;;23.50;55.40;;;;;;7707571;23;20017;-70
2022/06/03 03:10:57;;;;;;;5.85;2.42;;;23.50;55.40;;;;;;7703536;23;20021;-70
2022/06/03 03:14:01;;;;;;;3.35;1.75;;;23.50;55.50;;;;;;7704895;23;20017;-70
2022/06/03 03:17:27;;;;;;;7.93;2.85;;;23.50;55.40;;;;;;7679776;23;20012;-70
2022/06/03 03:20:45;;;;;;;4.05;2.70;;;23.50;55.40;;;;;;7702583;23;20110;-70
2022/06/03 03:23:48;;;;;;;4.27;2.37;;;23.50;55.40;;;;;;7681016;23;20352;-71
2022/06/03 03:27:09;;;;;;;11.93;2.47;;;23.50;55.40;;;;;;7733402;23;20008;-71
2022/06/03 03:30:30;;;;;;;3.92;2.60;;;23.40;55.50;;;;;;7709896;23;20078;-71
2022/06/03 03:33:37;;;;;;;3.95;2.60;;;23.40;55.60;;;;;;7658603;23;20009;-71
2022/06/03 03:37:11;;;;;;;3.25;2.25;;;23.30;55.80;;;;;;7685045;23;20028;-71
2022/06/03 03:40:24;;;;;;;4.97;2.40;;;23.30;56.10;;;;;;7682792;23;20387;-71
2022/06/03 03:43:43;;;;;;;7.10;2.45;;;23.20;56.20;;;;;;7684175;23;20016;-72
2022/06/03 03:47:05;;;;;;;4.20;2.70;;;23.20;56.40;;;;;;7710061;23;20016;-70
2022/06/03 03:50:52;;;;;;;7.18;2.78;;;23.10;56.40;;;;;;7709000;23;20023;-70
2022/06/03 03:54:11;;;;;;;4.80;2.45;;;23.10;56.60;;;;;;7706602;23;20432;-71
2022/06/03 03:57:34;;;;;;;5.82;2.28;;;23.10;56.90;;;;;;7733745;23;20009;-70
2022/06/03 04:00:54;;;;;;;3.97;2.60;;;23.10;56.60;;;;;;7734616;23;20301;-70
2022/06/03 04:04:22;;;;;;;7.32;2.50;;;23.10;56.70;;;;;;7733755;23;20047;-71
2022/06/03 04:07:42;;;;;;;4.35;2.40;;;23.00;56.80;;;;;;7709440;23;20596;-72
2022/06/03 04:11:19;;;;;;;3.95;2.30;;;23.00;56.90;;;;;;7708781;23;20088;-71
2022/06/03 04:14:53;;;;;;;2.85;2.10;;;23.00;56.90;;;;;;7732349;23;20074;-71
2022/06/03 04:18:23;;;;;;;10.48;1.90;;;23.00;57.00;;;;;;7733685;23;20071;-71
2022/06/03 04:21:57;;;;;;;4.63;2.50;;;23.00;57.00;;;;;;7733391;23;20030;-71
2022/06/03 04:25:07;;;;;;;5.53;2.30;;;23.00;57.00;;;;;;7710989;23;20039;-71
2022/06/03 04:28:34;;;;;;;3.30;2.10;;;23.00;56.90;;;;;;7734928;23;20016;-71
2022/06/03 04:31:50;;;;;;;5.55;2.13;;;23.00;56.90;;;;;;7710111;23;20024;-71
2022/06/03 04:35:21;;;;;;;4.57;1.90;;;23.10;56.80;;;;;;7733373;23;20023;-71
2022/06/03 04:38:46;;;;;;;3.47;2.10;;;23.10;56.60;;;;;;7708752;23;20031;-70
2022/06/03 04:42:17;;;;;;;8.27;2.55;;;23.20;56.40;;;;;;7717798;23;20083;-71
2022/06/03 04:45:37;;;;;;;7.25;2.38;;;23.20;56.30;;;;;;7682338;23;20375;-71
2022/06/03 04:49:06;;;;;;;7.05;2.88;;;23.20;56.20;;;;;;7708844;23;20021;-70
2022/06/03 04:52:54;;;;;;;4.28;2.22;;;23.20;56.20;;;;;;7731520;23;20016;-72
2022/06/03 04:56:32;;;;;;;5.57;2.40;;;23.20;56.20;;;;;;7593236;23;20026;-72
2022/06/03 05:00:08;;;;;;;7.78;2.20;;;23.20;56.10;;;;;;7592953;23;20029;-71
2022/06/03 05:03:46;;;;;;;5.97;2.33;;;23.20;56.20;;;;;;7593376;23;20020;-71
2022/06/03 05:07:01;;;;;;;3.33;2.00;;;23.20;56.20;;;;;;7592979;23;20104;-70
2022/06/03 05:10:32;;;;;;;4.80;2.42;;;23.20;56.20;;;;;;7594617;23;20018;-72
2022/06/03 05:14:02;;;;;;;5.32;2.17;;;23.30;56.20;;;;;;7568117;23;20014;-71
2022/06/03 05:17:24;;;;;;;3.65;2.28;;;23.30;56.10;;;;;;7593679;23;20053;-70
2022/06/03 05:20:45;;;;;;;6.57;2.10;;;23.40;55.80;;;;;;7579009;23;20018;-71
2022/06/03 05:24:23;;;;;;;8.82;2.47;;;23.50;55.80;;;;;;7568802;23;20037;-73
2022/06/03 05:27:43;;;;;;;4.25;2.00;;;23.60;55.60;;;;;;7594743;23;20044;-73
2022/06/03 05:31:29;;;;;;;8.38;2.75;;;23.60;55.30;;;;;;7593393;23;20025;-72
2022/06/03 05:34:42;;;;;;;4.05;2.38;;;23.70;55.20;;;;;;7683192;23;20013;-71
2022/06/03 05:38:20;;;;;;;5.30;2.42;;;23.70;55.10;;;;;;7709831;23;20051;-70
2022/06/03 05:45:22;;;;;;;9.05;2.08;;;23.70;55.10;;;;;;7679774;23;20440;-70
2022/06/03 05:48:45;;;;;;;7.13;2.30;;;23.70;55.00;;;;;;7530717;23;20029;-72
2022/06/03 05:52:24;;;;;;;10.07;4.45;;;23.70;54.90;;;;;;7533925;23;20081;-72
2022/06/03 05:55:42;;;;;;;3.83;2.30;;;23.70;54.90;;;;;;7533723;23;20375;-71
2022/06/03 05:58:53;;;;;;;9.47;2.47;;;23.70;54.70;;;;;;7558402;23;20018;-71
2022/06/03 06:02:13;;;;;;;3.72;1.80;;;23.80;54.60;;;;;;7534372;23;20014;-71
2022/06/03 06:05:23;;;;;;;7.28;1.88;;;23.80;54.30;;;;;;7535263;23;20074;-72
2022/06/03 06:08:35;;;;;;;8.93;2.10;;;23.90;54.10;;;;;;7559923;23;20070;-71
2022/06/03 06:11:45;;;;;;;5.72;2.22;;;23.90;53.80;;;;;;7560635;23;20477;-71
2022/06/03 06:15:30;;;;;;;7.97;2.30;;;24.00;53.80;;;;;;7535746;23;20283;-71
2022/06/03 06:18:35;;;;;;;3.95;2.40;;;24.00;53.70;;;;;;7555991;23;20126;-71
2022/06/03 06:21:54;;;;;;;3.60;2.38;;;24.10;53.50;;;;;;7582549;23;20014;-72
2022/06/03 06:25:02;;;;;;;6.72;2.40;;;24.10;53.40;;;;;;7630933;23;20248;-72
2022/06/03 06:28:35;;;;;;;5.65;2.80;;;24.20;53.20;;;;;;7681255;23;20024;-72
2022/06/03 06:32:14;;;;;;;4.63;2.35;;;24.20;53.10;;;;;;7706499;23;20078;-73
2022/06/03 06:35:51;;;;;;;8.77;2.53;;;24.30;53.00;;;;;;7703193;23;20017;-71
2022/06/03 06:39:22;;;;;;;19.17;2.67;;;24.40;52.90;;;;;;7729022;23;20364;-73
2022/06/03 06:42:56;;;;;;;5.88;3.03;;;24.40;52.80;;;;;;7704950;23;20419;-72
2022/06/03 06:46:09;;;;;;;8.80;2.50;;;24.50;52.70;;;;;;7703840;23;20024;-71
2022/06/03 06:49:48;;;;;;;9.70;2.80;;;24.60;52.70;;;;;;7730762;23;20049;-72
2022/06/03 06:53:02;;;;;;;4.38;2.38;;;24.70;52.60;;;;;;7556803;23;20267;-71
2022/06/03 06:56:17;;;;;;;8.27;2.40;;;24.70;52.40;;;;;;7581475;23;20360;-72
2022/06/03 06:59:31;;;;;;;5.93;3.30;;;24.70;52.30;;;;;;7532718;23;20030;-71
2022/06/03 07:03:11;;;;;;;19.63;3.20;;;24.80;52.10;;;;;;7557514;23;20018;-71
2022/06/03 07:06:32;;;;;;;;;;;24.90;51.90;;;;;;7529796;23;20237;-71
2022/06/03 07:10:02;;;;;;;11.20;2.15;;;25.00;51.50;;;;;;7550930;23;19988;-72
2022/06/03 07:13:31;;;;;;;4.03;2.20;;;25.10;50.90;;;;;;7530829;23;20343;-71
2022/06/03 07:20:16;;;;;;;5.90;2.15;;;25.10;50.50;;;;;;7531711;23;20388;-71
2022/06/03 07:23:37;;;;;;;6.82;2.53;;;25.10;50.40;;;;;;7557260;23;20093;-71
2022/06/03 07:26:45;;;;;;;10.45;1.77;;;25.20;50.20;;;;;;7581445;23;20038;-71
2022/06/03 07:29:55;;;;;;;10.63;2.60;;;25.30;50.10;;;;;;7648994;23;20320;-72
2022/06/03 07:33:01;;;;;;;11.13;2.50;;;25.50;49.90;;;;;;7654639;23;20345;-72
2022/06/03 07:36:21;;;;;;;5.50;2.20;;;25.70;49.60;;;;;;7656565;23;20013;-72
2022/06/03 07:39:37;;;;;;;6.50;2.30;;;25.90;49.30;;;;;;7704132;23;20099;-72
2022/06/03 07:43:06;;;;;;;9.75;2.30;;;26.00;48.90;;;;;;7705079;23;20019;-72
2022/06/03 07:46:29;;;;;;;8.90;3.63;;;25.90;48.80;;;;;;7729051;23;20028;-71
2022/06/03 07:49:34;;;;;;;5.00;2.67;;;26.00;49.00;;;;;;7703990;23;20163;-71
2022/06/03 07:52:46;;;;;;;8.30;2.53;;;26.00;48.90;;;;;;7704359;23;20048;-73
2022/06/03 07:55:53;;;;;;;9.40;2.63;;;26.10;48.90;;;;;;7654136;23;20039;-72
2022/06/03 07:59:04;;;;;;;4.00;2.33;;;26.20;48.70;;;;;;7705414;23;20016;-71
2022/06/03 08:02:17;;;;;;;6.82;2.65;;;26.20;48.50;;;;;;7679190;23;20312;-72
2022/06/03 08:05:20;;;;;;;8.75;2.60;;;26.20;48.50;;;;;;7654185;23;20319;-71
2022/06/03 08:11:45;;;;;;;8.63;2.47;;;26.10;48.40;;;;;;7730316;23;20020;-71
2022/06/03 08:14:46;;;;;;;3.53;2.28;;;26.10;48.60;;;;;;7681610;23;20019;-72
2022/06/03 08:17:50;;;;;;;9.55;2.30;;;26.00;48.60;;;;;;7682009;23;20012;-72
2022/06/03 08:21:00;;;;;;;9.25;2.42;;;25.90;48.70;;;;;;7684122;23;20047;-72
2022/06/03 08:24:02;;;;;;;14.50;3.33;;;25.90;48.90;;;;;;7687414;23;20029;-71
2022/06/03 08:27:11;;;;;;;16.85;3.22;;;25.90;48.90;;;;;;7732955;23;20466;-72
2022/06/03 08:30:20;;;;;;;7.60;2.17;;;25.90;48.90;;;;;;7681854;23;20028;-73
2022/06/03 08:33:49;;;;;;;19.95;5.07;;;25.90;48.90;;;;;;7706950;23;20092;-73
2022/06/03 08:36:52;;;;;;;7.28;2.55;;;25.80;49.20;;;;;;7656648;23;20024;-71
2022/06/03 08:39:58;;;;;;;4.28;2.38;;;25.80;49.70;;;;;;7684386;23;20034;-72
2022/06/03 08:43:02;;;;;;;7.40;2.50;;;25.70;50.10;;;;;;7684878;23;20062;-71
2022/06/03 08:46:12;;;;;;;8.30;2.75;;;25.60;50.50;;;;;;7710165;23;20021;-72
2022/06/03 08:49:19;;;;;;;4.95;2.78;;;25.60;51.10;;;;;;7733111;23;20024;-72
2022/06/03 08:52:26;;;;;;;9.57;2.75;;;25.50;51.60;;;;;;7683335;23;20048;-71
2022/06/03 08:55:42;;;;;;;4.88;2.78;;;25.50;51.80;;;;;;7733656;23;20103;-72
2022/06/03 08:58:56;;;;;;;6.40;3.15;;;25.60;52.00;;;;;;7706396;23;20029;-72
2022/06/03 09:02:03;;;;;;;5.22;3.03;;;25.50;52.50;;;;;;7707887;23;20131;-72
2022/06/03 09:05:29;;;;;;;4.70;2.67;;;25.50;52.70;;;;;;7673850;23;20410;-72
2022/06/03 09:08:38;;;;;;;13.07;4.10;;;25.50;52.80;;;;;;7691755;23;20020;-71
2022/06/03 09:11:54;;;;;;;8.43;4.60;;;25.50;52.70;;;;;;7707855;23;20428;-72
2022/06/03 09:15:11;;;;;;;18.33;4.43;;;25.50;52.70;;;;;;7732746;23;20012;-71
2022/06/03 09:18:41;;;;;;;15.20;4.20;;;25.50;53.00;;;;;;7682318;23;20099;-72
2022/06/03 09:21:46;;;;;;;11.82;4.00;;;25.50;53.40;;;;;;7708236;23;20019;-72
2022/06/03 09:24:47;;;;;;;11.50;4.07;;;25.50;53.60;;;;;;7682414;23;20055;-72
2022/06/03 09:27:51;;;;;;;17.17;8.00;;;25.50;54.10;;;;;;7704937;23;20111;-72
2022/06/03 09:30:55;;;;;;;8.52;3.72;;;25.50;54.60;;;;;;7695681;23;20031;-72
2022/06/03 09:33:57;;;;;;;9.60;3.55;;;25.50;54.90;;;;;;7683853;23;20013;-72
2022/06/03 09:36:59;;;;;;;16.80;7.00;;;25.40;54.90;;;;;;7684351;23;20147;-71
2022/06/03 09:40:03;;;;;;;17.27;8.75;;;25.40;55.10;;;;;;7684447;23;20016;-71
2022/06/03 09:43:08;;;;;;;13.40;5.82;;;25.40;55.10;;;;;;7709787;23;20027;-71
2022/06/03 09:46:12;;;;;;;23.70;11.32;;;25.30;55.10;;;;;;7712030;23;20016;-71
2022/06/03 09:49:18;;;;;;;19.38;6.45;;;25.40;55.20;;;;;;7678024;23;20439;-71
2022/06/03 09:52:24;;;;;;;26.63;7.85;;;25.40;55.10;;;;;;7700867;23;20041;-71
2022/06/03 09:55:37;;;;;;;22.85;8.43;;;25.50;55.10;;;;;;7684929;23;20531;-71
2022/06/03 09:58:40;;;;;;;9.90;4.10;;;25.50;55.10;;;;;;7685506;23;20082;-71
2022/06/03 10:01:41;;;;;;;20.83;6.97;;;25.60;55.00;;;;;;7711657;23;20083;-71
2022/06/03 10:04:42;;;;;;;24.35;10.45;;;25.70;55.00;;;;;;7711208;23;20110;-72
2022/06/03 10:07:45;;;;;;;12.15;5.63;;;25.80;55.00;;;;;;7686724;23;20016;-71
2022/06/03 10:14:07;;;;;;;17.33;6.97;;;25.90;54.80;;;;;;7709921;23;20301;-71
2022/06/03 10:17:11;;;;;;;15.85;5.68;;;26.10;54.80;;;;;;7711282;23;20491;-71
2022/06/03 10:20:12;;;;;;;15.52;7.72;;;26.10;54.70;;;;;;7685207;23;20449;-72
2022/06/03 10:23:13;;;;;;;21.50;10.32;;;26.30;54.40;;;;;;7711197;23;20355;-71
2022/06/03 10:26:38;;;;;;;28.77;15.07;;;26.40;54.30;;;;;;7684218;23;20554;-71
2022/06/03 10:29:50;;;;;;;25.77;9.20;;;26.60;54.00;;;;;;7734330;23;20031;-71
2022/06/03 10:32:52;;;;;;;34.72;14.20;;;26.80;53.70;;;;;;7684752;23;20123;-72
2022/06/03 10:35:57;;;;;;;11.20;4.90;;;26.90;53.40;;;;;;7684518;23;20051;-71
2022/06/03 10:38:58;;;;;;;12.30;5.97;;;26.90;52.80;;;;;;7683524;23;20017;-71
2022/06/03 10:41:59;;;;;;;19.63;10.05;;;27.00;52.70;;;;;;7711375;23;20012;-72
2022/06/03 10:45:00;;;;;;;28.38;9.88;;;27.10;52.20;;;;;;7735455;23;20028;-71
2022/06/03 10:48:29;;;;;;;12.98;5.28;;;27.10;52.20;;;;;;7684931;23;20032;-72
2022/06/03 11:01:49;;;;;;;15.07;6.55;;;27.30;51.50;;;;;;7706695;23;20091;-72
2022/06/03 11:04:50;;;;;;;16.52;8.07;;;27.40;51.40;;;;;;7682422;23;20428;-73
2022/06/03 11:08:19;;;;;;;11.20;5.78;;;27.50;51.40;;;;;;7683033;23;20020;-72
2022/06/03 11:11:45;;;;;;;12.65;6.50;;;27.50;51.40;;;;;;7675700;23;20047;-71
2022/06/03 11:14:46;;;;;;;9.65;4.32;;;27.60;51.50;;;;;;7705409;23;20023;-72
2022/06/03 11:17:47;;;;;;;9.68;4.85;;;27.70;51.40;;;;;;7679872;23;20096;-72
2022/06/03 11:20:51;;;;;;;13.98;5.22;;;27.90;51.30;;;;;;7670712;23;20016;-72
2022/06/03 11:23:55;;;;;;;20.23;9.00;;;28.00;51.00;;;;;;7697601;23;20085;-73
2022/06/03 11:26:56;;;;;;;23.20;11.02;;;28.10;50.90;;;;;;7728052;23;20027;-73
2022/06/03 11:30:04;;;;;;;28.10;9.65;;;28.20;50.60;;;;;;7704887;23;20012;-71
2022/06/03 11:33:19;;;;;;;22.10;10.25;;;28.20;50.20;;;;;;7702811;23;20024;-71
2022/06/03 11:36:31;;;;;;;9.32;5.13;;;28.30;49.80;;;;;;7705708;23;20331;-72
2022/06/03 11:39:38;;;;;;;11.38;3.55;;;28.30;49.70;;;;;;7678958;23;20084;-70
2022/06/03 11:42:46;;;;;;;8.13;3.33;;;28.30;49.50;;;;;;7704995;23;20036;-71
2022/06/03 11:45:53;;;;;;;12.88;5.30;;;28.30;49.20;;;;;;7705956;23;20016;-72
2022/06/03 11:48:55;;;;;;;11.95;6.32;;;28.30;48.90;;;;;;7731773;23;20029;-71
2022/06/03 11:51:56;;;;;;;5.72;3.33;;;28.30;48.40;;;;;;7682100;23;20111;-71
2022/06/03 11:54:57;;;;;;;9.07;3.45;;;28.30;48.30;;;;;;7682584;23;20039;-72
2022/06/03 11:58:22;;;;;;;10.98;3.95;;;28.30;48.30;;;;;;7683193;23;20092;-71
2022/06/03 12:01:41;;;;;;;7.13;3.25;;;28.30;48.30;;;;;;7684647;23;20016;-71
2022/06/03 12:04:52;;;;;;;7.10;3.20;;;28.30;48.30;;;;;;7731764;23;20020;-71
2022/06/03 12:08:07;;;;;;;9.82;3.35;;;28.30;48.70;;;;;;7707671;23;20036;-71
2022/06/03 12:15:00;;;;;;;15.15;3.58;;;28.50;48.30;;;;;;7641721;23;20020;-71
2022/06/03 12:18:07;;;;;;;6.93;3.58;;;28.70;48.20;;;;;;7682328;23;20022;-71
2022/06/03 12:21:34;;;;;;;7.50;3.70;;;28.80;48.10;;;;;;7727306;23;20012;-71
2022/06/03 12:24:35;;;;;;;5.72;3.20;;;29.00;48.00;;;;;;7707496;23;20021;-72
2022/06/03 12:27:40;;;;;;;7.20;3.33;;;29.50;47.50;;;;;;7733699;23;20031;-72
2022/06/03 12:30:50;;;;;;;5.88;2.92;;;30.20;46.30;;;;;;7707282;23;20023;-71
2022/06/03 12:34:03;;;;;;;8.23;3.15;;;31.10;45.10;;;;;;7707880;23;20023;-72
2022/06/03 12:37:28;;;;;;;4.30;3.03;;;32.00;43.50;;;;;;7707357;23;20107;-72
2022/06/03 12:40:35;;;;;;;7.95;2.28;;;33.00;41.80;;;;;;7704673;23;20071;-72
2022/06/03 12:43:45;;;;;;;8.40;2.55;;;33.70;40.10;;;;;;7656155;23;20009;-71
2022/06/03 12:46:46;;;;;;;4.10;2.35;;;34.30;39.00;;;;;;7706654;23;20008;-71
2022/06/03 12:49:50;;;;;;;9.80;2.20;;;35.00;37.10;;;;;;7706410;23;20090;-71
2022/06/03 12:53:31;;;;;;;6.15;2.88;;;35.30;36.00;;;;;;7731680;23;20206;-71
2022/06/03 12:56:40;;;;;;;8.90;2.95;;;35.50;35.70;;;;;;7706298;23;20016;-71
2022/06/03 12:59:52;;;;;;;6.28;3.08;;;36.00;34.70;;;;;;7730839;23;20028;-72
2022/06/03 13:03:01;;;;;;;9.05;2.13;;;36.30;33.60;;;;;;7728722;23;20024;-72
2022/06/03 13:06:05;;;;;;;;;;;36.70;33.00;;;;;;7679650;23;20490;-72
2022/06/03 13:12:36;;;;;;;13.68;3.22;;;37.80;31.40;;;;;;7712110;23;20021;-72
2022/06/03 13:15:37;;;;;;;8.18;2.60;;;38.60;30.60;;;;;;7705273;23;20016;-72
2022/06/03 13:18:41;;;;;;;5.30;2.45;;;39.50;29.20;;;;;;7730202;23;20026;-72
2022/06/03 13:22:09;;;;;;;6.38;2.90;;;40.20;28.60;;;;;;7681637;23;20054;-71
2022/06/03 13:25:16;;;;;;;5.97;2.08;;;41.00;27.50;;;;;;7681032;23;20082;-71
2022/06/03 13:28:34;;;;;;;14.55;2.63;;;41.70;26.00;;;;;;7730998;23;20028;-72
2022/06/03 13:31:41;;;;;;;10.07;2.08;;;42.00;25.20;;;;;;7706425;23;20020;-71
2022/06/03 13:34:43;;;;;;;7.03;2.17;;;42.50;24.90;;;;;;7680972;23;20139;-71
2022/06/03 13:37:49;;;;;;;5.80;1.75;;;43.00;24.30;;;;;;7679634;23;20292;-71
2022/06/03 13:44:48;;;;;;;11.50;2.33;;;44.10;23.20;;;;;;7706734;23;20087;-72
2022/06/03 13:47:53;;;;;;;9.18;2.60;;;45.00;22.70;;;;;;7729848;23;20020;-72
2022/06/03 13:50:55;;;;;;;7.80;2.00;;;45.80;22.10;;;;;;7707979;23;20044;-71
2022/06/03 13:54:06;;;;;;;9.27;3.47;;;46.50;21.40;;;;;;7732369;23;20039;-72
2022/06/03 13:57:19;;;;;;;12.88;3.20;;;46.70;20.80;;;;;;7679992;23;20012;-72
2022/06/03 14:00:26;;;;;;;13.65;5.22;;;47.00;20.50;;;;;;7683396;23;20028;-71
2022/06/03 14:03:48;;;;;;;;;;;47.20;20.00;;;;;;7683948;23;20020;-72
2022/06/03 14:07:07;;;;;;;6.93;1.48;;;47.30;20.20;;;;;;7708923;23;19916;-72
2022/06/03 14:10:20;;;;;;;10.80;2.95;;;47.60;20.00;;;;;;7683728;23;20010;-72
2022/06/03 14:13:36;;;;;;;11.65;2.65;;;48.10;19.80;;;;;;7708987;23;20013;-72
2022/06/03 14:16:50;;;;;;;7.07;2.00;;;48.40;19.50;;;;;;7710413;23;20016;-72
2022/06/03 14:20:15;;;;;;;11.05;2.33;;;48.50;19.00;;;;;;7683165;23;20012;-72
2022/06/03 14:23:41;;;;;;;6.72;2.38;;;48.60;18.90;;;;;;7733981;23;20397;-71
2022/06/03 14:26:56;;;;;;;6.80;1.80;;;48.70;18.70;;;;;;7706599;23;20452;-71
2022/06/03 14:30:10;;;;;;;9.27;1.95;;;48.90;18.50;;;;;;7732701;23;20327;-71
2022/06/03 14:33:13;;;;;;;9.55;1.77;;;48.90;18.40;;;;;;7732957;23;20036;-72
2022/06/03 14:36:18;;;;;;;8.55;2.03;;;49.30;18.20;;;;;;7733073;23;20016;-71
2022/06/03 14:39:38;;;;;;;9.38;2.00;;;49.40;18.10;;;;;;7708635;23;20027;-72
2022/06/03 14:42:39;;;;;;;4.22;1.70;;;49.60;17.70;;;;;;7731242;23;20063;-71
2022/06/03 14:45:45;;;;;;;7.18;2.00;;;49.70;17.60;;;;;;7682263;23;20029;-71
2022/06/03 14:48:49;;;;;;;10.65;1.73;;;49.60;17.40;;;;;;7706377;23;20096;-71
2022/06/03 14:52:00;;;;;;;6.47;1.50;;;49.70;17.30;;;;;;7680432;23;20021;-71
2022/06/03 14:55:11;;;;;;;11.88;2.10;;;49.60;17.30;;;;;;7706193;23;20012;-72
2022/06/03 14:58:37;;;;;;;8.50;2.00;;;49.60;17.40;;;;;;7681262;23;20040;-73
2022/06/03 15:01:41;;;;;;;11.23;2.03;;;49.60;17.30;;;;;;7708300;23;20013;-72
2022/06/03 15:04:53;;;;;;;9.07;1.67;;;49.50;17.20;;;;;;7732174;23;20349;-72
2022/06/03 15:08:05;;;;;;;7.15;1.95;;;49.20;17.10;;;;;;7681206;23;20036;-72
2022/06/03 15:11:09;;;;;;;8.27;2.47;;;48.00;17.70;;;;;;7707074;23;20024;-72
2022/06/03 15:14:15;;;;;;;5.78;2.17;;;46.80;18.50;;;;;;7681897;23;20034;-71
2022/06/03 15:17:24;;;;;;;5.68;2.22;;;46.20;19.10;;;;;;7682294;23;20035;-72
2022/06/03 15:20:25;;;;;;;6.97;2.00;;;46.20;19.20;;;;;;7707294;23;20027;-72
2022/06/03 15:23:27;;;;;;;9.73;2.17;;;46.20;19.10;;;;;;7734992;23;20012;-72
2022/06/03 15:26:32;;;;;;;8.25;2.25;;;46.30;19.10;;;;;;7710528;23;20328;-72
2022/06/03 15:29:36;;;;;;;8.75;2.17;;;46.40;19.20;;;;;;7684221;23;20044;-71
2022/06/03 15:32:41;;;;;;;9.63;2.30;;;46.50;19.10;;;;;;7709720;23;20020;-70
2022/06/03 15:35:43;;;;;;;13.20;2.30;;;46.40;19.00;;;;;;7683358;23;20024;-72
2022/06/03 15:38:49;;;;;;;7.38;1.67;;;46.30;19.00;;;;;;7710244;23;20090;-71
2022/06/03 15:41:52;;;;;;;10.18;2.03;;;45.50;19.50;;;;;;7709609;23;20095;-72
2022/06/03 15:44:54;;;;;;;12.82;2.65;;;45.00;19.80;;;;;;7682883;23;20023;-71
2022/06/03 15:48:05;;;;;;;4.55;2.08;;;44.80;19.90;;;;;;7683506;23;20013;-72
2022/06/03 15:51:09;;;;;;;6.25;2.08;;;44.40;20.20;;;;;;7671240;23;20021;-72
2022/06/03 15:54:27;;;;;;;6.20;2.10;;;44.60;20.10;;;;;;7672265;23;20009;-72
2022/06/03 15:57:31;;;;;;;7.75;2.05;;;45.10;19.90;;;;;;7721813;22;20278;-72
2022/06/03 16:00:43;;;;;;;11.30;2.10;;;45.50;19.60;;;;;;7721669;23;20083;-71
2022/06/03 16:04:03;;;;;;;12.77;1.95;;;45.20;19.80;;;;;;7671305;23;20092;-72
2022/06/03 16:07:23;;;;;;;4.40;1.90;;;44.50;20.10;;;;;;7717121;23;20364;-72
2022/06/03 16:10:36;;;;;;;14.68;2.35;;;44.60;20.10;;;;;;7718312;23;20432;-71
2022/06/03 16:14:12;;;;;;;10.00;2.97;;;44.40;20.20;;;;;;7667065;23;20089;-72
2022/06/03 16:17:19;;;;;;;9.63;2.40;;;44.00;20.70;;;;;;7715238;23;20043;-72
2022/06/03 16:20:21;;;;;;;9.82;2.58;;;44.20;20.50;;;;;;7667598;23;20079;-72
2022/06/03 16:23:36;;;;;;;11.23;2.28;;;44.50;20.80;;;;;;7667847;23;20016;-72
2022/06/03 16:26:50;;;;;;;9.32;1.90;;;44.50;20.20;;;;;;7717372;23;20037;-71
2022/06/03 16:30:00;;;;;;;6.32;1.67;;;44.50;20.20;;;;;;7691222;23;20013;-72
2022/06/03 16:33:24;;;;;;;11.63;1.92;;;44.70;20.10;;;;;;7716450;23;20017;-72
2022/06/03 16:36:47;;;;;;;7.90;1.98;;;44.80;20.00;;;;;;7553716;23;20430;-72
2022/06/03 16:40:14;;;;;;;10.10;2.45;;;44.90;20.00;;;;;;7529255;23;20042;-72
2022/06/03 16:43:19;;;;;;;10.35;2.42;;;44.50;20.10;;;;;;7554210;23;20015;-72
2022/06/03 16:46:32;;;;;;;10.25;1.90;;;44.30;20.40;;;;;;7534776;23;20092;-71
2022/06/03 16:50:03;;;;;;;11.20;2.30;;;44.30;20.50;;;;;;7557837;23;20028;-72
2022/06/03 16:53:15;;;;;;;7.95;2.13;;;44.50;20.60;;;;;;7450303;23;20091;-72
2022/06/03 16:56:24;;;;;;;5.93;2.20;;;43.80;21.10;;;;;;7452340;23;20016;-71
2022/06/03 16:59:25;;;;;;;7.78;2.38;;;42.70;22.00;;;;;;7430378;23;20024;-71
2022/06/03 17:02:26;;;;;;;6.80;1.85;;;41.50;23.00;;;;;;7451665;23;20016;-71
2022/06/03 17:05:27;;;;;;;7.85;2.22;;;40.40;23.90;;;;;;7449421;23;20046;-72
2022/06/03 17:08:33;;;;;;;9.00;3.03;;;39.50;24.80;;;;;;7450125;23;20425;-71
2022/06/03 17:11:38;;;;;;;11.40;3.60;;;38.60;25.60;;;;;;7428654;23;20033;-72
2022/06/03 17:14:43;;;;;;;6.93;3.10;;;37.90;26.30;;;;;;7536251;23;20030;-72
2022/06/03 17:17:45;;;;;;;8.18;3.03;;;37.30;27.00;;;;;;7541577;23;20018;-74
2022/06/03 17:21:05;;;;;;;17.67;3.47;;;36.60;27.70;;;;;;7562163;23;20018;-70
2022/06/03 17:24:09;;;;;;;11.05;2.85;;;35.50;28.90;;;;;;7559382;23;20034;-71
2022/06/03 17:27:31;;;;;;;7.63;2.60;;;34.40;30.50;;;;;;7537289;23;20086;-72
2022/06/03 17:31:04;;;;;;;7.00;2.55;;;33.50;31.80;;;;;;7674721;23;20104;-71